Zahedan, Iran

11:05 PM IRST on September 23, 2014 (GMT +0330)
Zahedan International | Change Station
CLOSE
Current Station
Airport
Location: Zahedan,
Elevation: 4495 ft
Nearby Weather Stations

Elev 4495 ft 29.47 °N, 60.88 °E | Updated 35 minutes ago

Clear
Clear
70 °F
Feels Like 70 °F
N
5
Wind Variable Wind from South

Today
High -- | Low -- °F
--% Chance of Precip.
Yesterday
High -- | Low -- °F
Precip. -- in
5:15 AM 5:22 PM
Waning Crescent, 0% visible
Pressure 29.95 in
Visibility -9999.0 miles
Clouds
Dew Point 14 °F
Humidity 12%
Rainfall 0.00 in
Snow Depth Not available.
UV Not available.
Pollen Not available.
Air Quality Not available.
Flu Activity Not available.
METAR OIZH 231900Z 18004KT CAVOK 21/M10 Q1014 A2995

More Conditions Fewer Conditions

Pressure 29.95 in
Visibility -9999.0 miles
Clouds
Dew Point 14 °F
Humidity 12%
Rainfall 0.00 in
Snow Depth Not available.
UV Not available.
Pollen Not available.
Air Quality Not available.
Flu Activity Not available.
METAR OIZH 231900Z 18004KT CAVOK 21/M10 Q1014 A2995

More Conditions Fewer Conditions

10-Day Weather Forecast

Almanac

Astronomy

Sep. 23, 2014 Rise Set
Actual Time 5:15 AM IRST 5:22 PM IRST
Civil Twilight 4:51 AM IRST 5:46 PM IRST
Nautical Twilight 4:23 AM IRST 6:13 PM IRST
Astronomical Twilight 3:55 AM IRST 6:41 PM IRST
Moon 4:18 AM IRST 4:47 PM IRST
Length of Visible Light 12h 54m
Length of Day
12h 07m
Tomorrow will be 1m 46s shorter.
Waning Crescent, 0% of the Moon is Illuminated
Today
Waning Crescent
Sep 24
New
Oct 1
First Quarter
Oct 8
Full
Oct 15
Last Quarter

Today's Extremes

Country Highs Country Lows

Community

WunderPhotos

Upload Photos

1,755,782 photos uploaded!

WunderBlogs® & News

Nearby

Snow Depth

Not available.

Earthquake Activity

City Distance Mag. Time & Date
No recent earthquake activity has been reported nearby.
Minimum magnitude displayed is 2.5.

Coastal Water Temperatures

Place Temperature
No Stations Reporting

Nearby Weather Stations